createdAt,value
2018-11-12T00:01:16.756Z,1.03
2018-11-12T00:03:45.122Z,0.90
2018-11-12T00:06:13.529Z,1.50
2018-11-12T00:08:41.866Z,0.93
2018-11-12T00:11:10.187Z,0.80
2018-11-12T00:13:38.539Z,1.10
2018-11-12T00:16:07.644Z,1.80
2018-11-12T00:18:35.994Z,1.07
2018-11-12T00:21:04.405Z,0.90
2018-11-12T00:23:32.751Z,1.30
2018-11-12T00:26:01.196Z,1.00
2018-11-12T00:28:29.555Z,1.30
2018-11-12T00:30:57.917Z,0.77
2018-11-12T00:33:27.152Z,2.20
2018-11-12T00:35:55.490Z,0.87
2018-11-12T00:38:24.715Z,1.67
2018-11-12T00:40:53.067Z,1.23
2018-11-12T00:43:21.403Z,1.10
2018-11-12T00:45:49.765Z,1.50
2018-11-12T00:48:18.123Z,1.27
2018-11-12T00:50:46.507Z,0.60
2018-11-12T00:53:14.815Z,2.47
2018-11-12T00:55:43.265Z,0.93
2018-11-12T00:58:11.609Z,1.17
2018-11-12T01:00:40.043Z,1.83
2018-11-12T01:03:08.405Z,0.70
2018-11-12T01:05:36.899Z,0.97
2018-11-12T01:08:05.259Z,1.07
2018-11-12T01:10:33.596Z,1.60
2018-11-12T01:13:01.956Z,1.20
2018-11-12T01:15:30.301Z,0.77
2018-11-12T01:17:58.675Z,1.80
2018-11-12T01:20:26.991Z,2.00
2018-11-12T01:22:55.436Z,2.30
2018-11-12T01:25:23.761Z,1.80
2018-11-12T01:27:52.114Z,1.50
2018-11-12T01:30:20.490Z,1.10
2018-11-12T01:32:48.838Z,1.00
2018-11-12T01:35:17.940Z,0.97
2018-11-12T01:37:46.277Z,0.93
2018-11-12T01:40:14.633Z,1.63
2018-11-12T01:42:42.986Z,1.33
2018-11-12T01:45:11.330Z,1.30
2018-11-12T01:47:39.737Z,2.03
2018-11-12T01:50:08.086Z,1.83
2018-11-12T01:52:36.492Z,1.30
2018-11-12T01:55:04.857Z,1.33
2018-11-12T01:57:33.969Z,1.93
2018-11-12T02:00:02.316Z,2.27
2018-11-12T02:02:30.717Z,2.87
2018-11-12T02:04:59.172Z,1.30
2018-11-12T02:07:27.504Z,2.27
2018-11-12T02:09:55.828Z,2.63
2018-11-12T02:12:24.171Z,2.77
2018-11-12T02:14:52.515Z,1.77
2018-11-12T02:17:20.867Z,1.70
2018-11-12T02:19:49.277Z,2.10
2018-11-12T02:22:17.621Z,1.33
2018-11-12T02:24:45.947Z,1.67
2018-11-12T02:27:14.317Z,3.13
2018-11-12T02:29:42.670Z,1.30
2018-11-12T02:32:11.792Z,1.50
2018-11-12T02:34:40.178Z,1.40
2018-11-12T02:37:08.547Z,1.00
2018-11-12T02:39:36.899Z,1.93
2018-11-12T02:42:05.234Z,3.00
2018-11-12T02:44:33.587Z,1.13
2018-11-12T02:47:01.921Z,1.83
2018-11-12T02:49:30.272Z,0.87
2018-11-12T02:51:58.591Z,1.80
2018-11-12T02:54:27.009Z,1.97
2018-11-12T02:56:55.356Z,1.90
2018-11-12T02:59:23.693Z,3.23
2018-11-12T03:01:52.056Z,2.37
2018-11-12T03:04:20.428Z,3.30
2018-11-12T03:06:48.811Z,3.97
2018-11-12T03:09:17.130Z,1.90
2018-11-12T03:11:45.470Z,2.70
2018-11-12T03:14:13.844Z,1.70
2018-11-12T03:16:42.216Z,2.07
2018-11-12T03:19:10.626Z,3.20
2018-11-12T03:21:39.034Z,5.37
2018-11-12T03:24:07.384Z,2.40
2018-11-12T03:26:35.737Z,1.63
2018-11-12T03:29:04.220Z,2.60
2018-11-12T03:31:32.529Z,1.90
2018-11-12T03:34:00.905Z,2.20
2018-11-12T03:36:29.278Z,3.43
2018-11-12T03:38:57.584Z,2.17
2018-11-12T03:41:26.019Z,1.47
2018-11-12T03:43:54.395Z,1.40
2018-11-12T03:46:22.772Z,1.93
2018-11-12T03:48:51.114Z,1.47
2018-11-12T03:51:19.523Z,3.33
2018-11-12T03:53:47.847Z,1.30
2018-11-12T03:56:16.287Z,2.33
2018-11-12T03:58:44.609Z,1.67
2018-11-12T04:01:13.038Z,2.10
2018-11-12T04:03:41.717Z,2.53
2018-11-12T04:06:10.833Z,1.40
2018-11-12T04:08:39.216Z,1.70
2018-11-12T04:11:07.558Z,1.47
2018-11-12T04:13:35.967Z,1.20
2018-11-12T04:16:04.345Z,2.07
2018-11-12T04:18:32.755Z,1.20
2018-11-12T04:21:01.202Z,0.97
2018-11-12T04:23:29.535Z,1.23
2018-11-12T04:25:57.862Z,1.10
2018-11-12T04:28:26.219Z,0.80
2018-11-12T04:30:55.344Z,1.33
2018-11-12T04:33:23.725Z,1.73
2018-11-12T04:35:52.088Z,0.70
2018-11-12T04:38:20.451Z,1.37
2018-11-12T04:40:48.867Z,1.23
2018-11-12T04:43:17.192Z,1.30
2018-11-12T04:45:45.552Z,0.90
2018-11-12T04:48:13.962Z,1.50
2018-11-12T04:50:42.384Z,1.20
2018-11-12T04:53:10.746Z,1.93
2018-11-12T04:55:39.146Z,1.03
2018-11-12T04:58:07.616Z,1.23
2018-11-12T05:00:35.966Z,1.00
2018-11-12T05:03:04.380Z,1.10
2018-11-12T05:05:32.738Z,1.23
2018-11-12T05:08:01.848Z,2.63
2018-11-12T05:10:30.204Z,2.20
2018-11-12T05:12:58.520Z,1.53
2018-11-12T05:15:31.837Z,1.83
2018-11-12T05:18:00.144Z,1.57
2018-11-12T05:20:28.497Z,2.93
2018-11-12T05:22:56.860Z,2.40
2018-11-12T05:25:25.329Z,1.80
2018-11-12T05:27:53.652Z,1.70
2018-11-12T05:30:21.980Z,2.03
2018-11-12T05:32:50.334Z,1.47
2018-11-12T05:35:19.445Z,21.73
2018-11-12T05:37:47.864Z,22.37
2018-11-12T05:40:16.207Z,12.73
2018-11-12T05:42:44.581Z,5.73
2018-11-12T05:45:12.927Z,2.07
2018-11-12T05:47:41.290Z,1.77
2018-11-12T05:50:09.659Z,5.00
2018-11-12T05:52:38.108Z,33.70
2018-11-12T05:55:06.454Z,25.30
2018-11-12T05:57:35.569Z,9.23
2018-11-12T06:00:04.652Z,3.27
2018-11-12T06:02:33.162Z,2.17
2018-11-12T06:05:01.605Z,1.70
2018-11-12T06:07:29.874Z,3.43
2018-11-12T06:09:58.248Z,10.57
2018-11-12T06:12:26.608Z,5.73
2018-11-12T06:14:54.982Z,4.03
2018-11-12T06:17:23.329Z,3.53
2018-11-12T06:19:51.735Z,2.40
2018-11-12T06:22:20.105Z,3.63
2018-11-12T06:24:48.446Z,4.83
2018-11-12T06:27:17.582Z,42.27
2018-11-12T06:29:46.062Z,53.30
2018-11-12T06:32:14.416Z,18.53
2018-11-12T06:34:42.859Z,11.23
2018-11-12T06:37:11.302Z,4.23
2018-11-12T06:39:39.652Z,48.63
2018-11-12T06:42:08.131Z,18.60
2018-11-12T06:44:36.475Z,6.13
2018-11-12T06:47:04.815Z,8.77
2018-11-12T06:49:33.193Z,6.60
2018-11-12T06:52:01.558Z,5.93
2018-11-12T06:54:29.878Z,3.13
2018-11-12T06:56:58.227Z,4.60
2018-11-12T06:59:26.564Z,4.13
2018-11-12T07:01:54.991Z,3.70
2018-11-12T07:04:23.320Z,3.40
2018-11-12T07:06:51.705Z,5.50
2018-11-12T07:09:20.054Z,5.00
2018-11-12T07:11:48.403Z,3.73
2018-11-12T07:14:16.770Z,4.47
2018-11-12T07:16:45.849Z,7.20
2018-11-12T07:19:15.004Z,5.20
2018-11-12T07:21:43.368Z,4.23
2018-11-12T07:24:11.944Z,5.37
2018-11-12T07:26:40.270Z,4.80
2018-11-12T07:29:08.696Z,3.80
2018-11-12T07:31:37.026Z,3.97
2018-11-12T07:34:05.356Z,9.90
2018-11-12T07:36:33.730Z,6.53
2018-11-12T07:39:02.066Z,5.83
2018-11-12T07:41:31.178Z,6.63
2018-11-12T07:44:00.284Z,7.03
2018-11-12T07:46:28.683Z,6.70
2018-11-12T07:48:57.148Z,7.93
2018-11-12T07:51:25.644Z,6.30
2018-11-12T07:53:53.894Z,5.30
2018-11-12T07:56:23.078Z,7.03
2018-11-12T07:58:52.110Z,6.60
2018-11-12T08:01:21.216Z,5.97
2018-11-12T08:03:49.620Z,7.50
2018-11-12T08:06:17.901Z,9.10
2018-11-12T08:08:46.234Z,4.50
2018-11-12T08:11:14.578Z,4.70
2018-11-12T08:13:42.940Z,5.07
2018-11-12T08:16:11.301Z,11.03
2018-11-12T08:18:39.742Z,4.47
2018-11-12T08:21:08.044Z,6.33
2018-11-12T08:23:36.379Z,7.40
2018-11-12T08:26:04.805Z,5.63
2018-11-12T08:28:33.130Z,6.40
2018-11-12T08:31:01.478Z,7.97
2018-11-12T08:33:29.844Z,7.77
2018-11-12T08:35:58.204Z,4.63
2018-11-12T08:38:26.535Z,6.30
2018-11-12T08:40:55.132Z,4.33
2018-11-12T08:43:23.219Z,5.40
2018-11-12T08:45:51.573Z,7.30
2018-11-12T08:48:19.955Z,5.27
2018-11-12T08:50:48.263Z,5.20
2018-11-12T08:53:17.399Z,5.93
2018-11-12T08:55:45.862Z,6.17
2018-11-12T08:58:14.879Z,5.23
2018-11-12T09:00:42.529Z,5.70
2018-11-12T09:03:10.882Z,5.43
2018-11-12T09:05:39.338Z,8.20
2018-11-12T09:08:07.638Z,6.57
2018-11-12T09:10:36.708Z,5.87
2018-11-12T09:13:05.074Z,5.87
2018-11-12T09:15:33.430Z,8.30
2018-11-12T09:18:01.809Z,7.80
2018-11-12T09:20:30.152Z,7.47
2018-11-12T09:22:58.489Z,5.80
2018-11-12T09:25:26.835Z,8.57
2018-11-12T09:27:55.210Z,9.30
2018-11-12T09:30:23.536Z,5.83
2018-11-12T09:32:51.946Z,5.60
2018-11-12T09:35:20.197Z,8.67
2018-11-12T09:37:48.632Z,5.57
2018-11-12T09:40:16.965Z,7.37
2018-11-12T09:42:45.378Z,7.50
2018-11-12T09:45:13.749Z,4.97
2018-11-12T09:47:42.905Z,5.67
2018-11-12T09:50:12.069Z,6.37
2018-11-12T09:52:40.386Z,5.63
2018-11-12T09:57:41.676Z,8.83
2018-11-12T10:00:10.955Z,7.17
2018-11-12T10:02:39.695Z,5.30
2018-11-12T10:05:08.976Z,6.90
2018-11-12T10:07:38.331Z,6.60
2018-11-12T10:10:07.830Z,6.23
2018-11-12T10:12:34.862Z,6.50
2018-11-12T10:15:05.286Z,6.53
2018-11-12T10:17:33.878Z,4.50
2018-11-12T10:19:59.192Z,5.97
2018-11-12T10:22:27.546Z,6.07
2018-11-12T10:24:55.900Z,5.80
2018-11-12T10:27:25.013Z,7.73
2018-11-12T10:29:53.372Z,5.83
2018-11-12T10:32:22.496Z,7.60
2018-11-12T10:34:50.864Z,6.83
2018-11-12T10:37:19.218Z,5.43
2018-11-12T10:39:48.721Z,6.87
2018-11-12T10:42:17.038Z,8.63
2018-11-12T10:44:45.352Z,6.50
2018-11-12T10:47:14.610Z,5.57
2018-11-12T10:49:43.001Z,7.13
2018-11-12T10:52:11.348Z,5.53
2018-11-12T10:54:39.825Z,7.80
2018-11-12T10:57:08.034Z,6.87
2018-11-12T10:59:36.401Z,6.53
2018-11-12T11:02:04.751Z,5.03
2018-11-12T11:04:33.865Z,4.87
2018-11-12T11:07:03.022Z,4.60
2018-11-12T11:09:31.356Z,6.23
2018-11-12T11:11:59.739Z,4.80
2018-11-12T11:14:28.086Z,6.53
2018-11-12T11:16:57.210Z,4.80
2018-11-12T11:19:25.596Z,4.78
2018-11-12T11:21:53.891Z,4.55
2018-11-12T11:24:22.275Z,7.37
2018-11-12T11:26:50.643Z,3.12
2018-11-12T11:29:18.966Z,4.45
2018-11-12T11:31:47.443Z,6.07
2018-11-12T11:34:15.715Z,4.82
2018-11-12T11:36:44.058Z,4.68
2018-11-12T11:39:12.402Z,4.30
2018-11-12T11:41:41.660Z,4.55
2018-11-12T11:44:09.981Z,4.22
2018-11-12T11:46:38.509Z,4.75
2018-11-12T11:49:06.862Z,5.22
2018-11-12T11:51:35.252Z,4.45
2018-11-12T11:54:04.360Z,3.42
2018-11-12T11:56:32.883Z,4.45
2018-11-12T11:59:01.101Z,3.62
2018-11-12T12:01:29.442Z,3.33
2018-11-12T12:03:58.654Z,2.70
2018-11-12T12:06:26.984Z,2.87
2018-11-12T12:08:55.413Z,2.45
2018-11-12T12:11:24.425Z,6.75
2018-11-12T12:13:52.794Z,4.80
2018-11-12T12:16:21.883Z,5.05
2018-11-12T12:18:51.183Z,5.05
2018-11-12T12:21:20.313Z,4.65
2018-11-12T12:23:48.684Z,5.65
2018-11-12T12:26:17.078Z,4.07
2018-11-12T12:28:45.456Z,4.97
2018-11-12T12:31:13.806Z,5.70
2018-11-12T12:33:42.137Z,5.72
2018-11-12T12:36:10.661Z,4.40
2018-11-12T12:38:38.983Z,3.78
2018-11-12T12:41:07.342Z,5.87
2018-11-12T12:43:35.704Z,2.53
2018-11-12T12:46:04.851Z,3.58
2018-11-12T12:48:33.176Z,3.62
2018-11-12T12:51:02.282Z,3.53
2018-11-12T12:53:30.648Z,3.45
2018-11-12T12:55:59.848Z,3.33
2018-11-12T12:58:28.238Z,3.35
2018-11-12T13:00:56.520Z,4.00
2018-11-12T13:03:24.959Z,3.25
2018-11-12T13:05:53.379Z,3.05
2018-11-12T13:08:21.756Z,3.60
2018-11-12T13:10:50.194Z,2.70
2018-11-12T13:13:18.629Z,1.80
2018-11-12T13:15:47.092Z,4.55
2018-11-12T13:18:16.217Z,4.43
2018-11-12T13:20:44.700Z,2.45
2018-11-12T13:23:13.079Z,3.53
2018-11-12T13:25:41.433Z,3.15
2018-11-12T13:28:10.611Z,3.00
2018-11-12T13:30:38.998Z,2.40
2018-11-12T13:33:07.353Z,2.75
2018-11-12T13:35:36.585Z,2.78
2018-11-12T13:38:05.710Z,3.12
2018-11-12T13:40:34.113Z,3.65
2018-11-12T13:43:02.541Z,4.97
2018-11-12T13:45:30.890Z,2.50
2018-11-12T13:47:59.661Z,3.85
2018-11-12T13:50:28.004Z,2.62
2018-11-12T13:52:56.400Z,3.28
2018-11-12T13:55:24.685Z,3.67
2018-11-12T13:57:53.027Z,3.30
2018-11-12T14:00:21.412Z,2.33
2018-11-12T14:02:49.722Z,2.72
2018-11-12T14:05:18.078Z,4.22
2018-11-12T14:07:46.409Z,3.00
2018-11-12T14:10:14.974Z,3.75
2018-11-12T14:12:43.445Z,3.53
2018-11-12T14:15:11.795Z,3.53
2018-11-12T14:17:40.163Z,5.03
2018-11-12T14:20:08.672Z,4.68
2018-11-12T14:22:36.893Z,2.67
2018-11-12T14:25:05.227Z,5.93
2018-11-12T14:27:33.647Z,3.83
2018-11-12T14:30:02.406Z,6.12
2018-11-12T14:32:30.881Z,3.62
2018-11-12T14:34:59.207Z,3.12
2018-11-12T14:37:27.989Z,5.22
2018-11-12T14:39:57.212Z,4.65
2018-11-12T14:42:25.601Z,3.40
2018-11-12T14:44:53.994Z,4.57
2018-11-12T14:47:22.348Z,3.37
2018-11-12T14:49:51.442Z,3.75
2018-11-12T14:52:20.556Z,3.25
2018-11-12T14:54:49.013Z,2.65
2018-11-12T14:57:17.322Z,2.42
2018-11-12T14:59:45.712Z,2.47
2018-11-12T15:02:14.049Z,3.03
2018-11-12T15:04:43.177Z,2.97
2018-11-12T15:07:11.552Z,2.90
2018-11-12T15:09:39.942Z,3.92
2018-11-12T15:12:08.288Z,5.63
2018-11-12T15:14:37.059Z,2.40
2018-11-12T15:17:05.361Z,2.43
2018-11-12T15:19:34.450Z,2.90
2018-11-12T15:22:03.590Z,2.37
2018-11-12T15:24:31.927Z,3.53
2018-11-12T15:27:01.084Z,5.40
2018-11-12T15:29:29.497Z,3.80
2018-11-12T15:31:57.805Z,4.47
2018-11-12T15:34:26.903Z,2.53
2018-11-12T15:36:55.446Z,3.80
2018-11-12T15:39:23.766Z,3.83
2018-11-12T15:41:52.078Z,2.10
2018-11-12T15:44:20.436Z,4.70
2018-11-12T15:46:48.759Z,3.70
2018-11-12T15:49:17.934Z,2.67
2018-11-12T15:51:46.275Z,3.73
2018-11-12T15:54:14.660Z,2.90
2018-11-12T15:56:43.020Z,4.50
2018-11-12T15:59:12.141Z,2.97
2018-11-12T16:01:40.512Z,2.40
2018-11-12T16:04:08.858Z,4.13
2018-11-12T16:06:37.293Z,2.67
2018-11-12T16:09:05.551Z,2.50
2018-11-12T16:11:34.551Z,3.30
2018-11-12T16:14:02.916Z,2.40
2018-11-12T16:16:31.467Z,4.60
2018-11-12T16:19:00.621Z,4.73
2018-11-12T16:21:29.030Z,4.23
2018-11-12T16:23:57.362Z,5.37
2018-11-12T16:26:25.870Z,2.83
2018-11-12T16:28:54.282Z,4.00
2018-11-12T16:31:22.706Z,2.90
2018-11-12T16:33:51.125Z,3.03
2018-11-12T16:36:19.447Z,3.47
2018-11-12T16:38:47.801Z,5.97
2018-11-12T16:41:16.141Z,3.63
2018-11-12T16:43:44.495Z,4.37
2018-11-12T16:46:12.825Z,4.33
2018-11-12T16:48:41.264Z,4.00
2018-11-12T16:51:09.596Z,5.50
2018-11-12T16:53:37.966Z,5.40
2018-11-12T16:56:06.404Z,4.13
2018-11-12T16:58:34.872Z,4.13
2018-11-12T17:01:03.258Z,3.73
2018-11-12T17:03:32.306Z,5.43
2018-11-12T17:06:00.799Z,5.23
2018-11-12T17:08:29.932Z,3.07
2018-11-12T17:10:58.277Z,4.30
2018-11-12T17:13:27.379Z,5.93
2018-11-12T17:15:56.474Z,4.13
2018-11-12T17:18:25.584Z,3.00
2018-11-12T17:20:54.023Z,3.77
2018-11-12T17:23:22.358Z,4.03
2018-11-12T17:25:50.699Z,4.13
2018-11-12T17:28:19.845Z,2.47
2018-11-12T17:30:48.206Z,3.43
2018-11-12T17:33:16.547Z,3.87
2018-11-12T17:35:44.923Z,3.13
2018-11-12T17:38:13.303Z,4.43
2018-11-12T17:40:41.658Z,5.17
2018-11-12T17:43:10.059Z,6.30
2018-11-12T17:45:38.386Z,5.23
2018-11-12T17:48:06.919Z,5.07
2018-11-12T17:50:35.252Z,6.67
2018-11-12T17:53:03.627Z,5.73
2018-11-12T17:55:32.013Z,7.77
2018-11-12T17:58:00.356Z,9.73
2018-11-12T18:00:29.552Z,11.30
2018-11-12T18:02:58.666Z,11.70
2018-11-12T18:05:27.792Z,12.70
2018-11-12T18:07:56.166Z,12.00
2018-11-12T18:10:24.560Z,16.23
2018-11-12T18:12:52.945Z,13.53
2018-11-12T18:15:21.312Z,13.90
2018-11-12T18:17:49.638Z,17.20
2018-11-12T18:20:18.875Z,16.80
2018-11-12T18:22:47.221Z,16.73
2018-11-12T18:25:15.597Z,17.27
2018-11-12T18:27:44.728Z,14.87
2018-11-12T18:30:13.246Z,16.40
2018-11-12T18:32:41.466Z,14.20
2018-11-12T18:35:09.846Z,12.73
2018-11-12T18:37:38.258Z,13.73
2018-11-12T18:40:06.631Z,14.07
2018-11-12T18:42:34.976Z,11.63
2018-11-12T18:45:03.682Z,11.60
2018-11-12T18:47:32.071Z,13.27
2018-11-12T18:50:00.410Z,12.53
2018-11-12T18:52:29.561Z,14.20
2018-11-12T18:54:57.889Z,18.23
2018-11-12T18:57:26.318Z,20.20
2018-11-12T18:59:55.401Z,19.87
2018-11-12T19:02:23.899Z,20.00
2018-11-12T19:04:52.232Z,20.00
2018-11-12T19:07:21.398Z,20.90
2018-11-12T19:09:49.750Z,18.97
2018-11-12T19:12:18.117Z,19.40
2018-11-12T19:14:46.501Z,20.70
2018-11-12T19:17:14.889Z,21.93
2018-11-12T19:19:43.223Z,22.00
2018-11-12T19:22:12.376Z,22.90
2018-11-12T19:24:40.745Z,20.77
2018-11-12T19:27:09.225Z,24.17
2018-11-12T19:29:37.581Z,34.47
2018-11-12T19:32:05.933Z,23.33
2018-11-12T19:34:35.055Z,21.10
2018-11-12T19:37:03.415Z,24.40
2018-11-12T19:39:32.548Z,26.17
2018-11-12T19:42:00.940Z,25.63
2018-11-12T19:44:29.289Z,27.33
2018-11-12T19:46:57.650Z,27.80
2018-11-12T19:49:26.844Z,34.30
2018-11-12T19:51:55.309Z,30.10
2018-11-12T19:54:23.748Z,35.17
2018-11-12T19:56:52.106Z,30.40
2018-11-12T19:59:20.487Z,31.63
2018-11-12T20:01:48.895Z,30.00
2018-11-12T20:04:17.300Z,27.60
2018-11-12T20:06:45.870Z,32.77
2018-11-12T20:09:14.209Z,29.83
2018-11-12T20:11:42.564Z,31.47
2018-11-12T20:14:11.709Z,31.07
2018-11-12T20:16:40.088Z,29.90
2018-11-12T20:19:08.474Z,32.27
2018-11-12T20:21:36.861Z,33.83
2018-11-12T20:24:05.209Z,32.63
2018-11-12T20:26:33.572Z,31.13
2018-11-12T20:29:01.925Z,34.33
2018-11-12T20:31:30.369Z,35.50
2018-11-12T20:33:58.738Z,35.33
2018-11-12T20:36:27.086Z,33.33
2018-11-12T20:38:55.490Z,31.60
2018-11-12T20:41:23.811Z,39.10
2018-11-12T20:43:52.248Z,36.17
2018-11-12T20:46:20.624Z,38.33
2018-11-12T20:48:48.945Z,37.03
2018-11-12T20:51:17.327Z,36.67
2018-11-12T20:53:45.670Z,36.77
2018-11-12T20:56:14.038Z,39.17
2018-11-12T20:58:42.395Z,37.23
2018-11-12T21:01:11.519Z,35.63
2018-11-12T21:03:39.912Z,35.90
2018-11-12T21:06:08.279Z,42.90
2018-11-12T21:08:36.676Z,39.53
2018-11-12T21:11:05.043Z,39.50
2018-11-12T21:13:33.381Z,40.80
2018-11-12T21:16:02.618Z,36.87
2018-11-12T21:18:30.987Z,39.37
2018-11-12T21:20:59.333Z,35.17
2018-11-12T21:23:28.471Z,35.03
2018-11-12T21:25:56.820Z,37.23
2018-11-12T21:28:25.987Z,37.83
2018-11-12T21:30:54.340Z,36.60
2018-11-12T21:33:22.701Z,39.27
2018-11-12T21:35:51.079Z,42.57
2018-11-12T21:38:19.468Z,39.53
2018-11-12T21:40:47.834Z,39.93
2018-11-12T21:43:16.370Z,40.33
2018-11-12T21:45:45.310Z,40.23
2018-11-12T21:48:13.809Z,39.50
2018-11-12T21:50:42.142Z,39.47
2018-11-12T21:53:11.266Z,39.03
2018-11-12T21:55:39.687Z,41.20
2018-11-12T21:58:08.025Z,41.53
2018-11-12T22:00:36.395Z,43.37
2018-11-12T22:03:05.509Z,43.80
2018-11-12T22:05:33.873Z,42.83
2018-11-12T22:08:02.227Z,44.57
2018-11-12T22:10:30.588Z,46.13
2018-11-12T22:12:58.955Z,44.33
2018-11-12T22:15:27.304Z,43.40
2018-11-12T22:17:55.645Z,44.67
2018-11-12T22:20:24.763Z,45.90
2018-11-12T22:22:53.203Z,45.57
2018-11-12T22:25:21.841Z,43.90
2018-11-12T22:27:50.176Z,43.00
2018-11-12T22:30:18.524Z,42.77
2018-11-12T22:32:46.903Z,45.13
2018-11-12T22:35:15.249Z,42.80
2018-11-12T22:37:43.708Z,45.93
2018-11-12T22:40:11.978Z,44.07
2018-11-12T22:42:40.343Z,44.23
2018-11-12T22:45:08.695Z,45.30
2018-11-12T22:47:37.164Z,51.27
2018-11-12T22:50:05.509Z,44.57
2018-11-12T22:52:33.970Z,44.07
2018-11-12T22:55:02.520Z,43.13
2018-11-12T22:57:30.859Z,40.97
2018-11-12T22:59:59.203Z,43.37
2018-11-12T23:02:27.550Z,40.43
2018-11-12T23:04:55.899Z,41.87
2018-11-12T23:07:24.425Z,36.97
2018-11-12T23:09:52.788Z,37.03
2018-11-12T23:12:21.489Z,40.30
2018-11-12T23:14:49.817Z,38.27
2018-11-12T23:17:18.226Z,40.17
2018-11-12T23:19:46.637Z,42.43
2018-11-12T23:22:15.685Z,38.73
2018-11-12T23:24:44.062Z,39.90
2018-11-12T23:27:12.456Z,38.67
2018-11-12T23:29:40.815Z,38.30
2018-11-12T23:32:09.159Z,39.63
2018-11-12T23:34:37.788Z,38.60
2018-11-12T23:37:06.166Z,38.33
2018-11-12T23:39:34.542Z,40.27
2018-11-12T23:42:02.911Z,34.23
2018-11-12T23:44:32.011Z,38.57
2018-11-12T23:47:00.384Z,37.60
2018-11-12T23:49:29.517Z,40.90
2018-11-12T23:51:57.877Z,44.77
2018-11-12T23:54:26.253Z,40.70
2018-11-12T23:56:54.926Z,40.03
2018-11-12T23:59:24.029Z,37.53
